Fergus Falls, MN

2:03 PM CST on February 14, 2016 (GMT -0600)
Fergus Falls Municipal-Mickelson

Weather History for KFFM - February, 2013

Change the Weather History Date:

Monday, February 18, 2013

  Actual Average Record
Temperature  
Mean Temperature 14 °F -  
Max Temperature 30 °F 25 °F 56 °F (1981)
Min Temperature -2 °F 6 °F -24 °F (1993)
Degree Days  
Heating Degree Days 51    
Moisture  
Dew Point 7 °F    
Average Humidity 83    
Maximum Humidity 100    
Minimum Humidity 71    
Precipitation  
Precipitation 0.00 in - - ()
Sea Level Pressure  
Sea Level Pressure 29.74 in    
Wind  
Wind Speed 19 mph (NW)    
Max Wind Speed 34 mph    
Max Gust Speed 47 mph    
Visibility 3 miles    
Events Snow    
Averages and records for this station are not official NWS values.
T = Trace of Precipitation, MM = Missing Value Source: NWS Daily Summary

Daily Weather History Graph

Daily Weather History Graph

Search for Another Location

Airport or City:

Trip Planner

Search our weather history database for the weather conditions in past years. The results will help you decide how hot, cold, wet, or windy it might be!

Date:

Astronomy

Feb. 18, 2013 Rise Set
Actual Time 7:22 AM CST 5:55 PM CST
Civil Twilight 6:51 AM CST 6:26 PM CST
Nautical Twilight 6:16 AM CST 7:01 PM CST
Astronomical Twilight 5:42 AM CST 7:35 PM CST
Moon 11:32 AM CST (2/18) 2:12 AM CST (2/18)
Length of Visible Light 11h 34m
Length of Day
10h 32m
First Quarter, 58% of the Moon is Illuminated
Feb 18
First Quarter
Feb 25
Full
Mar 4
Last Quarter
Mar 11
New
Mar 19
First Quarter

Hourly Weather History & Observations

Time (CST) Temp. Windchill Dew Point Humidity Pressure Visibility Wind Dir Wind Speed Gust Speed Precip Events Conditions
12:13 AM 30.2 °F 21.3 °F 26.6 °F 86% 29.49 in 10.0 mi SSE 10.4 mph - N/A   Clear
12:33 AM 30.2 °F 21.3 °F 26.6 °F 86% 29.50 in 10.0 mi South 10.4 mph - N/A   Clear
12:53 AM 30.2 °F 21.9 °F 26.6 °F 86% 29.49 in 10.0 mi South 9.2 mph - N/A   Clear
1:13 AM 28.4 °F 21.2 °F 26.6 °F 93% 29.49 in 10.0 mi SSW 6.9 mph - N/A   Clear
1:33 AM 28.4 °F 20.4 °F 26.6 °F 93% 29.49 in 7.0 mi SSW 8.1 mph - N/A   Clear
1:53 AM 28.4 °F 21.2 °F 26.6 °F 93% 29.49 in 7.0 mi South 6.9 mph - N/A   Clear
2:13 AM 28.4 °F 21.2 °F 26.6 °F 93% 29.49 in 7.0 mi SSW 6.9 mph - N/A   Clear
2:33 AM 26.6 °F 18.2 °F 26.6 °F 100% 29.49 in 7.0 mi SSW 8.1 mph - N/A   Clear
2:53 AM 28.4 °F 22.2 °F 26.6 °F 93% 29.48 in 5.0 mi SSW 5.8 mph - N/A   Clear
3:13 AM 28.4 °F 23.3 °F 26.6 °F 93% 29.48 in 5.0 mi WSW 4.6 mph - N/A   Clear
3:33 AM 28.4 °F 22.2 °F 26.6 °F 93% 29.48 in 5.0 mi WSW 5.8 mph - N/A   Clear
3:53 AM 28.4 °F 24.6 °F 26.6 °F 93% 29.48 in 5.0 mi WSW 3.5 mph - N/A   Scattered Clouds
4:13 AM 28.4 °F 22.2 °F 26.6 °F 93% 29.49 in 5.0 mi West 5.8 mph - N/A   Scattered Clouds
4:33 AM 28.4 °F 22.2 °F 26.6 °F 93% 29.49 in 3.0 mi West 5.8 mph - N/A   Scattered Clouds
4:53 AM 30.2 °F 17.4 °F 30.2 °F 100% 29.49 in 2.0 mi NW 20.7 mph 25.3 mph N/A   Overcast
5:13 AM 26.6 °F 12.4 °F 24.8 °F 93% 29.51 in 2.5 mi NNW 21.9 mph - N/A   Mostly Cloudy
5:33 AM 24.8 °F 8.1 °F 23.0 °F 93% 29.53 in 4.0 mi NNW 28.8 mph 35.7 mph N/A   Scattered Clouds
5:53 AM 24.8 °F 8.7 °F 21.2 °F 86% 29.54 in 7.0 mi NNW 26.5 mph 29.9 mph N/A   Scattered Clouds
6:13 AM 24.8 °F 8.7 °F 21.2 °F 86% 29.55 in 10.0 mi NNW 26.5 mph 32.2 mph N/A   Scattered Clouds
6:32 AM 23.0 °F 5.4 °F 19.4 °F 86% 29.56 in 10.0 mi NNW 29.9 mph 34.5 mph N/A   Mostly Cloudy
6:53 AM 21.2 °F 3.0 °F 17.6 °F 86% 29.57 in 7.0 mi NNW 29.9 mph 38.0 mph N/A   Mostly Cloudy
7:13 AM 19.4 °F 0.8 °F 17.6 °F 93% 29.59 in 4.0 mi NNW 28.8 mph 34.5 mph N/A   Mostly Cloudy
7:33 AM 17.6 °F -1.6 °F 15.8 °F 93% 29.60 in 2.0 mi NNW 28.8 mph 39.1 mph N/A   Overcast
8:13 AM 15.8 °F -4.4 °F 10.4 °F 79% 29.62 in 1.2 mi NNW 29.9 mph 36.8 mph N/A Snow Light Snow
8:32 AM 14.0 °F -5.8 °F 10.4 °F 86% 29.64 in 2.5 mi NNW 26.5 mph 42.6 mph N/A Snow Light Snow
8:53 AM 12.2 °F -8.6 °F 10.4 °F 92% 29.66 in 1.0 mi NNW 27.6 mph 39.1 mph N/A Snow Light Snow
9:13 AM 12.2 °F -7.1 °F 8.6 °F 85% 29.68 in 1.2 mi NNW 23.0 mph 42.6 mph N/A Snow Light Snow
9:32 AM 10.4 °F -11.4 °F 8.6 °F 92% 29.69 in 0.8 mi NNW 28.8 mph - N/A Snow Light Snow
9:53 AM 10.4 °F -11.7 °F 6.8 °F 85% 29.69 in 1.2 mi NNW 29.9 mph 40.3 mph N/A Snow Light Snow
10:13 AM 10.4 °F -12.3 °F 6.8 °F 85% 29.71 in 0.5 mi NNW 32.2 mph 39.1 mph N/A Snow Light Snow
10:33 AM 10.4 °F -11.7 °F 5.0 °F 79% 29.72 in 2.0 mi NNW 29.9 mph 36.8 mph N/A   Haze
10:53 AM 8.6 °F -13.4 °F 5.0 °F 85% 29.74 in 1.8 mi NNW 27.6 mph 40.3 mph N/A Snow Light Snow
11:13 AM 8.6 °F -13.1 °F 5.0 °F 85% 29.75 in 0.8 mi NNW 26.5 mph 34.5 mph N/A Snow Light Snow
11:33 AM 8.6 °F -13.8 °F 3.2 °F 79% 29.76 in 1.0 mi NNW 28.8 mph 36.8 mph N/A Snow Light Snow
11:53 AM 8.6 °F -14.5 °F 3.2 °F 79% 29.77 in 1.2 mi NNW 31.1 mph 38.0 mph N/A Snow Light Snow
12:13 PM 8.6 °F -13.8 °F 3.2 °F 79% 29.77 in 1.5 mi NNW 28.8 mph 38.0 mph N/A   Haze
12:33 PM 8.6 °F -11.9 °F 1.4 °F 73% 29.78 in 1.5 mi NNW 23.0 mph 40.3 mph N/A Snow Light Snow
12:53 PM 8.6 °F -14.8 °F 3.2 °F 79% 29.78 in - NNW 32.2 mph 40.3 mph N/A Snow Light Snow
1:13 PM 8.6 °F -13.8 °F 1.4 °F 73% 29.78 in 1.5 mi NNW 28.8 mph 41.4 mph N/A   Haze
1:33 PM 6.8 °F -16.6 °F -0.4 °F 72% 29.78 in 2.5 mi NNW 29.9 mph 44.9 mph N/A   Haze
1:53 PM 6.8 °F -16.9 °F -0.4 °F 72% 29.79 in 1.0 mi NNW 31.1 mph 44.9 mph N/A Snow Light Snow
2:13 PM 5.0 °F -20.4 °F -0.4 °F 78% 29.80 in 1.8 mi NNW 34.5 mph 47.2 mph N/A   Haze
2:33 PM 5.0 °F -18.3 °F -0.4 °F 78% 29.82 in 1.2 mi NNW 27.6 mph 39.1 mph N/A   Haze
2:53 PM 3.2 °F -20.7 °F -0.4 °F 85% 29.83 in 0.8 mi NNW 27.6 mph 34.5 mph N/A   Haze
3:13 PM 3.2 °F -19.9 °F -2.2 °F 78% 29.84 in 0.8 mi NNW 25.3 mph 36.8 mph N/A   Haze
3:33 PM 3.2 °F -21.8 °F -2.2 °F 78% 29.85 in 1.5 mi NNW 31.1 mph - N/A   Haze
3:53 PM 3.2 °F -20.3 °F -4.0 °F 72% 29.87 in 1.5 mi NNW 26.5 mph 36.8 mph N/A   Haze
4:13 PM 1.4 °F -23.2 °F -4.0 °F 78% 29.87 in 1.2 mi NNW 27.6 mph 36.8 mph N/A   Haze
4:33 PM 1.4 °F -23.2 °F -5.8 °F 72% 29.88 in 2.5 mi NNW 27.6 mph 36.8 mph N/A   Haze
4:53 PM 1.4 °F -24.3 °F -4.0 °F 78% 29.88 in 1.2 mi NNW 31.1 mph 38.0 mph N/A   Haze
5:13 PM 1.4 °F -23.2 °F -4.0 °F 78% 29.90 in 1.2 mi NNW 27.6 mph 38.0 mph N/A   Haze
5:33 PM 1.4 °F -23.9 °F -5.8 °F 72% 29.91 in 1.2 mi NNW 29.9 mph 34.5 mph N/A   Haze
5:53 PM -0.4 °F -24.7 °F -5.8 °F 78% 29.93 in 4.0 mi NNW 25.3 mph 39.1 mph N/A   Haze
6:13 PM -0.4 °F -26.0 °F -5.8 °F 78% 29.93 in 2.0 mi NNW 28.8 mph 34.5 mph N/A   Haze
6:33 PM -0.4 °F -25.2 °F -5.8 °F 78% 29.94 in 2.5 mi NNW 26.5 mph 39.1 mph N/A   Haze
6:53 PM -0.4 °F -25.2 °F -5.8 °F 78% 29.95 in 3.0 mi NNW 26.5 mph 38.0 mph N/A   Haze
7:13 PM -0.4 °F -25.2 °F -7.6 °F 72% 29.96 in 1.8 mi NNW 26.5 mph 34.5 mph N/A   Haze
7:33 PM -2.2 °F -28.4 °F -7.6 °F 78% 29.96 in 2.0 mi NNW 28.8 mph 34.5 mph N/A   Haze
7:53 PM -2.2 °F -26.2 °F -7.6 °F 78% 29.97 in 2.0 mi NNW 23.0 mph 32.2 mph N/A   Haze
8:13 PM -2.2 °F -26.7 °F -7.6 °F 78% 29.97 in 3.0 mi NNW 24.2 mph 35.7 mph N/A   Haze
8:33 PM -2.2 °F -27.1 °F -7.6 °F 78% 29.98 in 3.0 mi NNW 25.3 mph 33.4 mph N/A   Haze
8:53 PM -2.2 °F -27.1 °F -7.6 °F 78% 29.98 in 2.5 mi NNW 25.3 mph 33.4 mph N/A   Haze
9:13 PM -2.2 °F -27.6 °F -9.4 °F 71% 29.98 in 2.5 mi NNW 26.5 mph 32.2 mph N/A   Haze
9:53 PM -2.2 °F -26.2 °F -7.6 °F 78% 30.00 in 2.0 mi NNW 23.0 mph 29.9 mph N/A   Haze
10:13 PM -2.2 °F -26.7 °F -7.6 °F 78% 30.00 in 2.0 mi NNW 24.2 mph 35.7 mph N/A   Haze
10:33 PM -2.2 °F -26.7 °F -7.6 °F 78% 30.00 in 2.0 mi NNW 24.2 mph 32.2 mph N/A   Haze
10:53 PM -0.4 °F -24.3 °F -7.6 °F 72% 30.01 in 2.5 mi NNW 24.2 mph 32.2 mph N/A   Haze
11:13 PM -0.4 °F -24.3 °F -5.8 °F 78% 30.02 in 2.0 mi NNW 24.2 mph 34.5 mph N/A   Haze
11:33 PM -0.4 °F -24.7 °F -5.8 °F 78% 30.02 in 2.0 mi NNW 25.3 mph 32.2 mph N/A   Haze
11:53 PM -0.4 °F -26.0 °F -7.6 °F 72% 30.03 in 1.8 mi NNW 28.8 mph 33.4 mph N/A   Haze